Terminal Aerodrome Forecast
Issued by NWS

Home | Current Version | Previous Version | Text Only | Print | Product List | Glossary On
Versions: 1 2 3 4 5 6 7 8 9 10 11 12 13 14 15 16 17 18 19 20 21 22 23 24
000
FTUS41 KALY 210238 AAA
TAFPSF
TAF AMD
KPSF 210238Z 2103/2124 21003KT P6SM SCT035 BKN045
     FM211000 21006KT P6SM SKC WS020/24035KT
     FM211500 21010KT P6SM SKC=

USA.gov is the U.S. government's official web portal to all federal, state and local government web resources and services.